Aérodrome :
LOGIN :

S'inscrire | Disclaimer

   EN    FR    IT 

 










Légende :    VFR   VFR Marginal   IFR   IFR Intensif   IFR Très Intensif
Visi : 
Plafond : 
>= 8 km
>= 3000ft
5 à 8 km
1000 à 3000 ft
1500m à 5 km
500 à 1000 ft
800 à 1500m
200 à 500 ft
< 800m
< 200 ft
Symboles :   Orages  Brouillard  Fortes neiges  Fortes précipitations  Vent > 20 kt
SIGMETs :   Divers  Orages  Givrage  Turbulence  Onde Orograph.  Cendres Volcan.







- Altitude de l'aérodrome : 370 ft


EBBE - Beauvechain AB

DERNIER METAR :
  • 270755Z 15006KT 9999 FEW120 BKN220 11/03 Q1012 BLU BLU

METARs EXPIRÉS :
  • 270725Z 15006KT 9999 FEW150 BKN220 10/03 Q1012 BLU BLU
  • 270655Z 12006KT 9999 FEW150 BKN220 10/03 Q1013 BLU BLU
  • 270625Z 12004KT 9999 FEW150 BKN220 08/02 Q1013 BLU BLU
  • 270555Z 14005KT 9999 FEW150 BKN220 08/02 Q1013 BLU BLU
  • 270525Z 14005KT 9999 SCT150 BKN220 07/02 Q1014 BLU BLU

TAF TAF EBBE
Valide du 27 à 07h jusqu'au 27 à 16h UTC


270541Z 2707/2716 15005KT 9999 SCT150 BKN220
BECMG 2708/2710 FEW040 SCT150 BKN220
Pas de NOTAMs connus pour ce terrain.



MET'MAP, la Météo Aéronautique d'un coup d'oeil ! - Copyright ORBIFLY Décembre 2007 - Disclaimer

ORBIFLY MET'MAP TEAM :

Programmation & Développement : Alexandra Zaïnal
Conception & Développement : Baudouin d'Aumeries
Co-Programmation & Développement : Marc-Olivier Méhu
Soutien technique & logistique : Manuel Goepfert

Contact : metmap@orbifly.com




SOURCES & CREDITS :

   NOAA